createdAt,value
2016-08-01T00:00:23.809Z,0
2016-08-01T00:01:23.834Z,0
2016-08-01T00:02:23.862Z,0
2016-08-01T00:04:23.914Z,0
2016-08-01T00:05:23.959Z,0
2016-08-01T00:06:23.967Z,0
2016-08-01T00:07:24.698Z,0
2016-08-01T00:08:38.943Z,0
2016-08-01T00:09:24.047Z,0
2016-08-01T00:10:39.007Z,0
2016-08-01T00:11:39.011Z,0
2016-08-01T00:12:24.126Z,0
2016-08-01T00:13:24.159Z,0
2016-08-01T00:14:24.183Z,0
2016-08-01T00:15:24.212Z,0
2016-08-01T00:16:24.220Z,0
2016-08-01T00:17:24.312Z,0
2016-08-01T00:19:24.304Z,0
2016-08-01T00:20:24.326Z,0
2016-08-01T00:21:24.357Z,0
2016-08-01T00:22:24.375Z,0
2016-08-01T00:23:24.408Z,0
2016-08-01T00:24:24.452Z,0
2016-08-01T00:26:24.493Z,0
2016-08-01T00:27:39.434Z,0
2016-08-01T00:28:54.391Z,0
2016-08-01T00:29:24.567Z,0
2016-08-01T00:30:24.602Z,0
2016-08-01T00:31:24.617Z,0
2016-08-01T00:32:24.648Z,0
2016-08-01T00:34:24.750Z,0
2016-08-01T00:35:24.728Z,0
2016-08-01T00:36:24.750Z,0
2016-08-01T00:37:24.774Z,0
2016-08-01T00:38:24.805Z,0
2016-08-01T00:39:39.756Z,0
2016-08-01T00:40:24.857Z,0
2016-08-01T00:41:24.884Z,0
2016-08-01T00:42:24.910Z,0
2016-08-01T00:43:39.871Z,0
2016-08-01T00:44:24.968Z,0
2016-08-01T00:45:24.989Z,0
2016-08-01T00:46:25.017Z,0
2016-08-01T00:47:25.039Z,0
2016-08-01T00:48:25.061Z,0
2016-08-01T00:49:25.088Z,0
2016-08-01T00:50:25.124Z,0
2016-08-01T00:51:25.150Z,0
2016-08-01T00:52:25.168Z,0
2016-08-01T00:53:25.201Z,0
2016-08-01T00:54:25.225Z,0
2016-08-01T00:55:40.176Z,0
2016-08-01T00:56:25.280Z,0
2016-08-01T00:57:25.298Z,0
2016-08-01T00:58:25.387Z,0
2016-08-01T00:59:55.204Z,0
2016-08-01T01:00:40.312Z,0
2016-08-01T01:01:25.411Z,0
2016-08-01T01:02:25.435Z,0
2016-08-01T01:03:25.449Z,0
2016-08-01T01:04:25.485Z,0
2016-08-01T01:05:25.513Z,0
2016-08-01T01:06:25.540Z,0
2016-08-01T01:08:25.593Z,0
2016-08-01T01:09:25.616Z,0
2016-08-01T01:10:25.647Z,0
2016-08-01T01:11:25.664Z,0
2016-08-01T01:13:25.721Z,0
2016-08-01T01:14:55.594Z,0
2016-08-01T01:16:25.792Z,0
2016-08-01T01:17:25.819Z,0
2016-08-01T01:18:25.850Z,0
2016-08-01T01:19:25.883Z,0
2016-08-01T01:20:25.895Z,0
2016-08-01T01:21:25.922Z,0
2016-08-01T01:22:25.962Z,0
2016-08-01T01:23:25.968Z,0
2016-08-01T01:24:26.702Z,0
2016-08-01T01:25:26.086Z,0
2016-08-01T01:26:26.060Z,0
2016-08-01T01:27:26.086Z,0
2016-08-01T01:28:26.102Z,0
2016-08-01T01:29:26.141Z,0
2016-08-01T01:30:26.177Z,0
2016-08-01T01:31:26.186Z,0
2016-08-01T01:32:26.210Z,0
2016-08-01T01:35:26.282Z,0
2016-08-01T01:36:26.324Z,0
2016-08-01T01:37:26.340Z,0
2016-08-01T01:38:26.376Z,0
2016-08-01T01:39:26.441Z,0
2016-08-01T01:40:26.413Z,0
2016-08-01T01:41:26.438Z,0
2016-08-01T01:43:27.195Z,0
2016-08-01T01:44:26.528Z,0
2016-08-01T01:46:41.502Z,0
2016-08-01T01:47:26.595Z,0
2016-08-01T01:48:26.635Z,0
2016-08-01T01:49:26.645Z,0
2016-08-01T01:50:26.678Z,0
2016-08-01T01:51:26.708Z,0
2016-08-01T01:52:26.728Z,0
2016-08-01T01:53:26.750Z,0
2016-08-01T01:55:26.804Z,0
2016-08-01T01:56:41.751Z,0
2016-08-01T01:57:26.861Z,0
2016-08-01T01:58:41.813Z,0
2016-08-01T01:59:56.760Z,0
2016-08-01T02:00:56.785Z,0
2016-08-01T02:01:26.961Z,0
2016-08-01T02:02:41.912Z,0
2016-08-01T02:03:27.017Z,0
2016-08-01T02:04:27.041Z,0
2016-08-01T02:05:27.066Z,0
2016-08-01T02:06:42.014Z,0
2016-08-01T02:07:27.120Z,0
2016-08-01T02:08:27.137Z,0
2016-08-01T02:09:27.174Z,0
2016-08-01T02:10:27.244Z,0
2016-08-01T02:11:42.139Z,0
2016-08-01T02:12:27.243Z,0
2016-08-01T02:13:27.270Z,0
2016-08-01T02:14:27.296Z,0
2016-08-01T02:15:27.329Z,0
2016-08-01T02:16:27.346Z,0
2016-08-01T02:17:27.378Z,0
2016-08-01T02:18:42.326Z,0
2016-08-01T02:19:27.437Z,0
2016-08-01T02:20:27.455Z,0
2016-08-01T02:21:27.496Z,0
2016-08-01T02:22:27.501Z,0
2016-08-01T02:23:28.218Z,0
2016-08-01T02:24:27.550Z,0
2016-08-01T02:25:27.593Z,0
2016-08-01T02:26:27.604Z,0
2016-08-01T02:27:27.624Z,0
2016-08-01T02:28:27.649Z,0
2016-08-01T02:31:42.656Z,0
2016-08-01T02:32:27.754Z,0
2016-08-01T02:33:28.528Z,0
2016-08-01T02:34:42.728Z,0
2016-08-01T02:35:27.832Z,0
2016-08-01T02:36:27.860Z,0
2016-08-01T02:37:27.888Z,0
2016-08-01T02:38:27.908Z,0
2016-08-01T02:39:27.934Z,0
2016-08-01T02:40:27.963Z,0
2016-08-01T02:41:28.039Z,0
2016-08-01T02:42:28.707Z,0
2016-08-01T02:43:28.041Z,0
2016-08-01T02:44:42.994Z,0
2016-08-01T02:45:28.105Z,0
2016-08-01T02:46:43.039Z,0
2016-08-01T02:47:43.059Z,0
2016-08-01T02:48:28.175Z,0
2016-08-01T02:50:28.218Z,0
2016-08-01T02:51:28.247Z,0
2016-08-01T02:52:28.272Z,0
2016-08-01T02:53:28.305Z,0
2016-08-01T02:54:28.337Z,0
2016-08-01T02:55:28.342Z,0
2016-08-01T02:56:28.370Z,0
2016-08-01T02:57:28.403Z,0
2016-08-01T02:58:28.429Z,0
2016-08-01T02:59:28.459Z,0
2016-08-01T03:00:28.478Z,0
2016-08-01T03:01:44.137Z,0
2016-08-01T03:02:28.528Z,0
2016-08-01T03:03:28.553Z,0
2016-08-01T03:04:28.584Z,0
2016-08-01T03:05:28.612Z,0
2016-08-01T03:06:28.624Z,0
2016-08-01T03:07:28.662Z,0
2016-08-01T03:08:28.685Z,0
2016-08-01T03:09:28.710Z,0
2016-08-01T03:10:28.754Z,0
2016-08-01T03:11:28.812Z,0
2016-08-01T03:12:28.783Z,0
2016-08-01T03:13:28.813Z,0
2016-08-01T03:14:28.829Z,0
2016-08-01T03:15:28.872Z,0
2016-08-01T03:16:28.894Z,0
2016-08-01T03:17:43.834Z,0
2016-08-01T03:18:28.943Z,0
2016-08-01T03:19:43.892Z,0
2016-08-01T03:20:28.992Z,0
2016-08-01T03:21:43.932Z,5
2016-08-01T03:22:29.048Z,5
2016-08-01T03:23:29.059Z,5
2016-08-01T03:24:29.091Z,5
2016-08-01T03:25:29.120Z,5
2016-08-01T03:26:29.147Z,5
2016-08-01T03:27:29.178Z,5
2016-08-01T03:28:29.197Z,5
2016-08-01T03:29:29.218Z,5
2016-08-01T03:30:44.173Z,5
2016-08-01T03:31:29.272Z,10
2016-08-01T03:32:29.296Z,10
2016-08-01T03:33:29.379Z,5
2016-08-01T03:34:29.370Z,10
2016-08-01T03:35:29.369Z,10
2016-08-01T03:36:44.369Z,10
2016-08-01T03:37:44.351Z,10
2016-08-01T03:39:29.481Z,10
2016-08-01T03:40:29.494Z,15
2016-08-01T03:41:29.540Z,15
2016-08-01T03:42:29.554Z,15
2016-08-01T03:43:29.619Z,15
2016-08-01T03:44:29.617Z,20
2016-08-01T03:45:44.549Z,20
2016-08-01T03:46:29.650Z,20
2016-08-01T03:48:29.700Z,20
2016-08-01T03:49:29.731Z,25
2016-08-01T03:50:29.760Z,30
2016-08-01T03:51:29.778Z,30
2016-08-01T03:52:44.728Z,30
2016-08-01T03:53:44.758Z,35
2016-08-01T03:54:29.856Z,40
2016-08-01T03:55:29.886Z,40
2016-08-01T03:56:29.913Z,40
2016-08-01T03:57:29.927Z,40
2016-08-01T03:58:29.969Z,40
2016-08-01T03:59:29.992Z,45
2016-08-01T04:00:30.010Z,50
2016-08-01T04:01:30.035Z,50
2016-08-01T04:02:30.079Z,50
2016-08-01T04:03:30.091Z,55
2016-08-01T04:04:31.777Z,55
2016-08-01T04:05:30.141Z,55
2016-08-01T04:07:30.196Z,55
2016-08-01T04:09:45.172Z,60
2016-08-01T04:10:30.275Z,65
2016-08-01T04:11:30.300Z,65
2016-08-01T04:12:45.239Z,70
2016-08-01T04:13:30.342Z,70
2016-08-01T04:14:30.374Z,85
2016-08-01T04:15:30.396Z,95
2016-08-01T04:16:30.425Z,90
2016-08-01T04:17:30.504Z,65
2016-08-01T04:18:30.484Z,50
2016-08-01T04:19:32.146Z,55
2016-08-01T04:20:30.527Z,50
2016-08-01T04:21:45.480Z,75
2016-08-01T04:22:30.581Z,70
2016-08-01T04:23:30.606Z,40
2016-08-01T04:24:45.549Z,45
2016-08-01T04:25:30.659Z,60
2016-08-01T04:27:30.715Z,40
2016-08-01T04:28:30.737Z,40
2016-08-01T04:29:30.760Z,65
2016-08-01T04:30:30.779Z,45
2016-08-01T04:31:45.734Z,30
2016-08-01T04:32:30.842Z,45
2016-08-01T04:33:30.854Z,55
2016-08-01T04:34:31.710Z,55
2016-08-01T04:35:30.907Z,50
2016-08-01T04:36:45.912Z,50
2016-08-01T04:37:45.895Z,80
2016-08-01T04:38:45.924Z,85
2016-08-01T04:40:31.045Z,90
2016-08-01T04:41:31.063Z,110
2016-08-01T04:42:31.091Z,150
2016-08-01T04:43:31.122Z,165
2016-08-01T04:44:31.154Z,140
2016-08-01T04:45:31.172Z,145
2016-08-01T04:46:31.199Z,165
2016-08-01T04:47:31.221Z,185
2016-08-01T04:48:31.252Z,185
2016-08-01T04:50:31.353Z,200
2016-08-01T04:51:46.244Z,215
2016-08-01T04:52:46.284Z,205
2016-08-01T04:53:46.304Z,210
2016-08-01T04:54:46.327Z,220
2016-08-01T04:55:31.424Z,215
2016-08-01T04:56:46.382Z,355
2016-08-01T04:57:31.494Z,170
2016-08-01T04:58:31.522Z,235
2016-08-01T04:59:31.534Z,200
2016-08-01T05:00:46.488Z,195
2016-08-01T05:01:31.591Z,845
2016-08-01T05:02:31.624Z,210
2016-08-01T05:03:31.642Z,830
2016-08-01T05:05:01.525Z,205
2016-08-01T05:05:31.691Z,295
2016-08-01T05:08:31.773Z,450
2016-08-01T05:10:01.659Z,835
2016-08-01T05:10:32.528Z,1005
2016-08-01T05:11:31.864Z,750
2016-08-01T05:12:46.808Z,420
2016-08-01T05:13:46.840Z,1035
2016-08-01T05:14:46.866Z,760
2016-08-01T05:15:31.972Z,1210
2016-08-01T05:16:31.999Z,1150
2016-08-01T05:17:32.031Z,545
2016-08-01T05:18:46.986Z,1205
2016-08-01T05:19:47.848Z,1130
2016-08-01T05:20:32.116Z,1180
2016-08-01T05:21:32.151Z,290
2016-08-01T05:22:32.178Z,450
2016-08-01T05:23:47.131Z,420
2016-08-01T05:25:02.096Z,200
2016-08-01T05:25:32.271Z,180
2016-08-01T05:26:32.295Z,235
2016-08-01T05:27:47.262Z,1005
2016-08-01T05:28:47.282Z,220
2016-08-01T05:29:32.397Z,505
2016-08-01T05:31:32.459Z,290
2016-08-01T05:32:47.413Z,270
2016-08-01T05:33:32.520Z,1160
2016-08-01T05:34:33.384Z,1195
2016-08-01T05:35:32.588Z,1175
2016-08-01T05:36:32.613Z,1230
2016-08-01T05:37:32.639Z,1170
2016-08-01T05:38:32.684Z,1270
2016-08-01T05:39:32.699Z,1295
2016-08-01T05:40:32.736Z,1315
2016-08-01T05:41:47.792Z,1310
2016-08-01T05:42:32.798Z,1300
2016-08-01T05:43:32.820Z,1375
2016-08-01T05:44:47.790Z,1335
2016-08-01T05:45:32.895Z,1295
2016-08-01T05:46:32.927Z,1330
2016-08-01T05:47:32.958Z,1320
2016-08-01T05:48:32.995Z,1300
2016-08-01T05:49:34.692Z,1300
2016-08-01T05:51:33.097Z,1375
2016-08-01T05:52:33.138Z,1340
2016-08-01T05:53:33.178Z,1365
2016-08-01T05:54:33.193Z,1380
2016-08-01T05:55:33.233Z,1400
2016-08-01T05:56:33.264Z,1320
2016-08-01T05:57:48.223Z,1225
2016-08-01T05:58:48.951Z,1250
2016-08-01T05:59:48.296Z,1275
2016-08-01T06:00:33.405Z,1220
2016-08-01T06:01:33.455Z,1145
2016-08-01T06:02:33.474Z,1175
2016-08-01T06:03:33.505Z,1050
2016-08-01T06:04:36.015Z,1210
2016-08-01T06:05:34.267Z,1440
2016-08-01T06:06:48.539Z,1415
2016-08-01T06:07:33.655Z,1360
2016-08-01T06:08:33.666Z,1385
2016-08-01T06:09:33.708Z,1355
2016-08-01T06:10:33.747Z,1430
2016-08-01T06:11:33.782Z,1390
2016-08-01T06:12:49.432Z,1285
2016-08-01T06:14:34.575Z,1185
2016-08-01T06:15:33.927Z,1160
2016-08-01T06:16:33.957Z,1360
2016-08-01T06:17:33.986Z,1285
2016-08-01T06:18:34.025Z,1320
2016-08-01T06:20:34.088Z,1355
2016-08-01T06:22:34.154Z,1335
2016-08-01T06:23:34.189Z,1375
2016-08-01T06:24:34.234Z,1345
2016-08-01T06:26:34.294Z,1305
2016-08-01T06:27:34.330Z,1345
2016-08-01T06:28:34.360Z,1330
2016-08-01T06:29:34.402Z,1385
2016-08-01T06:31:49.393Z,1320
2016-08-01T06:32:34.501Z,1215
2016-08-01T06:33:34.539Z,1360
2016-08-01T06:35:35.361Z,1290
2016-08-01T06:36:34.639Z,1385
2016-08-01T06:38:34.710Z,1300
2016-08-01T06:39:34.750Z,1280
2016-08-01T06:40:49.712Z,300
2016-08-01T06:41:34.816Z,1305
2016-08-01T06:42:49.831Z,1245
2016-08-01T06:43:34.890Z,1240
2016-08-01T06:44:34.930Z,950
2016-08-01T06:45:34.956Z,705
2016-08-01T06:46:35.041Z,650
2016-08-01T06:47:49.959Z,835
2016-08-01T06:48:35.062Z,735
2016-08-01T06:50:35.126Z,495
2016-08-01T06:51:35.171Z,230
2016-08-01T06:52:35.197Z,790
2016-08-01T06:53:35.230Z,730
2016-08-01T06:54:35.276Z,340
2016-08-01T06:55:50.228Z,620
2016-08-01T06:56:35.334Z,780
2016-08-01T06:57:35.372Z,745
2016-08-01T06:58:35.412Z,390
2016-08-01T06:59:35.438Z,610
2016-08-01T07:00:50.404Z,215
2016-08-01T07:01:35.509Z,200
2016-08-01T07:02:35.562Z,225
2016-08-01T07:04:05.430Z,540
2016-08-01T07:04:35.617Z,270
2016-08-01T07:05:35.644Z,610
2016-08-01T07:06:35.686Z,265
2016-08-01T07:07:35.713Z,610
2016-08-01T07:08:35.745Z,270
2016-08-01T07:09:35.785Z,675
2016-08-01T07:10:36.517Z,285
2016-08-01T07:11:50.772Z,270
2016-08-01T07:12:35.879Z,720
2016-08-01T07:13:35.917Z,300
2016-08-01T07:14:35.940Z,1115
2016-08-01T07:15:36.673Z,1315
2016-08-01T07:16:50.937Z,295
2016-08-01T07:17:36.048Z,320
2016-08-01T07:18:36.090Z,1125
2016-08-01T07:20:36.147Z,1525
2016-08-01T07:21:36.178Z,310
2016-08-01T07:22:36.210Z,1455
2016-08-01T07:23:36.249Z,430
2016-08-01T07:24:36.288Z,260
2016-08-01T07:25:36.325Z,1105
2016-08-01T07:26:36.358Z,1015
2016-08-01T07:27:36.382Z,1155
2016-08-01T07:28:36.424Z,1300
2016-08-01T07:29:36.446Z,1325
2016-08-01T07:30:36.480Z,1290
2016-08-01T07:32:36.542Z,1165
2016-08-01T07:33:51.505Z,1115
2016-08-01T07:35:51.568Z,1115
2016-08-01T07:36:36.676Z,1165
2016-08-01T07:37:36.712Z,660
2016-08-01T07:38:36.748Z,270
2016-08-01T07:39:36.780Z,1125
2016-08-01T07:40:37.503Z,1115
2016-08-01T07:41:51.772Z,1145
2016-08-01T07:42:36.899Z,1140
2016-08-01T07:43:36.957Z,905
2016-08-01T07:44:36.949Z,1175
2016-08-01T07:45:36.990Z,1220
2016-08-01T07:46:37.132Z,1195
2016-08-01T07:47:37.047Z,1155
2016-08-01T07:48:37.084Z,390
2016-08-01T07:49:37.118Z,415
2016-08-01T07:50:37.153Z,260
2016-08-01T07:51:37.186Z,1105
2016-08-01T07:52:37.225Z,1115
2016-08-01T07:53:37.256Z,980
2016-08-01T07:54:37.286Z,1090
2016-08-01T07:55:37.331Z,775
2016-08-01T07:56:37.363Z,1075
2016-08-01T07:57:37.401Z,1060
2016-08-01T07:59:37.455Z,350
2016-08-01T08:00:37.512Z,955
2016-08-01T08:01:37.527Z,1010
2016-08-01T08:02:37.580Z,960
2016-08-01T08:03:52.545Z,295
2016-08-01T08:04:37.643Z,315
2016-08-01T08:05:37.673Z,290
2016-08-01T08:07:37.745Z,975
2016-08-01T08:08:38.466Z,940
2016-08-01T08:09:37.811Z,970
2016-08-01T08:10:37.844Z,1020
2016-08-01T08:11:37.889Z,980
2016-08-01T08:12:37.908Z,935
2016-08-01T08:13:52.871Z,925
2016-08-01T08:14:37.972Z,925
2016-08-01T08:15:38.021Z,910
2016-08-01T08:16:38.057Z,895
2016-08-01T08:17:38.077Z,880
2016-08-01T08:18:38.118Z,855
2016-08-01T08:19:53.078Z,850
2016-08-01T08:20:38.180Z,825
2016-08-01T08:21:38.231Z,825
2016-08-01T08:22:53.181Z,825
2016-08-01T08:23:53.220Z,680
2016-08-01T08:24:38.327Z,265
2016-08-01T08:25:38.407Z,810
2016-08-01T08:26:53.322Z,790
2016-08-01T08:27:38.434Z,775
2016-08-01T08:28:38.462Z,780
2016-08-01T08:29:38.493Z,780
2016-08-01T08:30:54.160Z,540
2016-08-01T08:31:38.565Z,760
2016-08-01T08:32:53.540Z,270
2016-08-01T08:33:38.633Z,245
2016-08-01T08:34:38.675Z,260
2016-08-01T08:35:38.711Z,250
2016-08-01T08:36:53.667Z,265
2016-08-01T08:37:38.773Z,250
2016-08-01T08:38:53.727Z,275
2016-08-01T08:39:53.762Z,235
2016-08-01T08:40:38.873Z,230
2016-08-01T08:41:38.918Z,230
2016-08-01T08:42:38.958Z,235
2016-08-01T08:43:53.905Z,225
2016-08-01T08:44:53.936Z,260
2016-08-01T08:45:39.054Z,230
2016-08-01T08:46:39.087Z,230
2016-08-01T08:47:54.033Z,605
2016-08-01T08:48:39.144Z,605
2016-08-01T08:49:39.170Z,585
2016-08-01T08:50:54.184Z,455
2016-08-01T08:51:54.162Z,435
2016-08-01T08:52:39.273Z,575
2016-08-01T08:53:39.310Z,560
2016-08-01T08:54:54.262Z,530
2016-08-01T08:55:39.363Z,200
2016-08-01T08:56:39.403Z,200
2016-08-01T08:57:39.440Z,545
2016-08-01T08:58:39.523Z,225
2016-08-01T08:59:39.559Z,260
2016-08-01T09:00:39.536Z,575
2016-08-01T09:01:39.568Z,370
2016-08-01T09:02:54.538Z,570
2016-08-01T09:03:39.633Z,565
2016-08-01T09:04:39.677Z,545
2016-08-01T09:05:55.325Z,555
2016-08-01T09:06:39.731Z,545
2016-08-01T09:07:54.692Z,215
2016-08-01T09:08:39.809Z,205
2016-08-01T09:10:09.687Z,200
2016-08-01T09:10:39.874Z,210
2016-08-01T09:11:39.897Z,230
2016-08-01T09:12:39.933Z,245
2016-08-01T09:13:39.967Z,280
2016-08-01T09:15:40.037Z,520
2016-08-01T09:16:40.064Z,510
2016-08-01T09:17:40.109Z,490
2016-08-01T09:18:40.126Z,455
2016-08-01T09:19:40.166Z,450
2016-08-01T09:20:40.211Z,435
2016-08-01T09:21:40.233Z,445
2016-08-01T09:22:40.279Z,415
2016-08-01T09:23:55.230Z,405
2016-08-01T09:24:55.253Z,370
2016-08-01T09:25:55.291Z,375
2016-08-01T09:26:40.447Z,175
2016-08-01T09:27:40.428Z,345
2016-08-01T09:28:40.461Z,345
2016-08-01T09:29:40.501Z,350
2016-08-01T09:30:40.532Z,355
2016-08-01T09:31:55.488Z,370
2016-08-01T09:32:41.301Z,380
2016-08-01T09:33:55.649Z,210
2016-08-01T09:34:55.585Z,215
2016-08-01T09:35:41.406Z,295
2016-08-01T09:36:40.724Z,390
2016-08-01T09:37:40.760Z,385
2016-08-01T09:38:40.800Z,365
2016-08-01T09:39:40.832Z,355
2016-08-01T09:41:55.821Z,335
2016-08-01T09:42:40.926Z,335
2016-08-01T09:43:40.961Z,335
2016-08-01T09:44:40.989Z,335
2016-08-01T09:45:41.031Z,315
2016-08-01T09:46:41.061Z,210
2016-08-01T09:47:41.090Z,365
2016-08-01T09:48:41.826Z,235
2016-08-01T09:49:41.151Z,190
2016-08-01T09:50:41.189Z,340
2016-08-01T09:52:41.266Z,330
2016-08-01T09:53:41.282Z,330
2016-08-01T09:54:41.332Z,330
2016-08-01T09:56:11.210Z,335
2016-08-01T09:56:56.314Z,330
2016-08-01T09:57:56.350Z,330
2016-08-01T09:58:41.459Z,185
2016-08-01T09:59:41.536Z,170
2016-08-01T10:00:56.448Z,335
2016-08-01T10:01:56.489Z,300
2016-08-01T10:02:41.601Z,165
2016-08-01T10:04:41.644Z,160
2016-08-01T10:05:41.690Z,330
2016-08-01T10:06:41.724Z,335
2016-08-01T10:07:41.744Z,335
2016-08-01T10:08:41.779Z,340
2016-08-01T10:10:41.851Z,335
2016-08-01T10:11:41.884Z,335
2016-08-01T10:12:56.845Z,310
2016-08-01T10:13:56.868Z,215
2016-08-01T10:14:41.992Z,280
2016-08-01T10:15:42.030Z,195
2016-08-01T10:16:56.978Z,185
2016-08-01T10:17:42.074Z,175
2016-08-01T10:18:42.797Z,180
2016-08-01T10:19:42.145Z,345
2016-08-01T10:20:57.099Z,345
2016-08-01T10:21:42.260Z,345
2016-08-01T10:22:42.244Z,345
2016-08-01T10:23:42.267Z,340
2016-08-01T10:24:42.309Z,325
2016-08-01T10:25:42.331Z,245
2016-08-01T10:27:42.407Z,160
2016-08-01T10:28:42.440Z,155
2016-08-01T10:30:12.321Z,165
2016-08-01T10:30:42.502Z,280
2016-08-01T10:31:42.682Z,330
2016-08-01T10:32:42.861Z,340
2016-08-01T10:33:42.594Z,345
2016-08-01T10:34:42.632Z,210
2016-08-01T10:35:42.666Z,190
2016-08-01T10:36:42.703Z,185
2016-08-01T10:37:42.726Z,250
2016-08-01T10:38:57.682Z,180
2016-08-01T10:40:42.826Z,335
2016-08-01T10:41:42.864Z,325
2016-08-01T10:42:42.882Z,315
2016-08-01T10:43:42.918Z,180
2016-08-01T10:44:57.880Z,300
2016-08-01T10:45:43.003Z,245
2016-08-01T10:46:43.023Z,290
2016-08-01T10:47:43.040Z,285
2016-08-01T10:48:58.013Z,280
2016-08-01T10:49:43.113Z,280
2016-08-01T10:50:58.075Z,270
2016-08-01T10:52:43.206Z,145
2016-08-01T10:53:43.242Z,270
2016-08-01T10:54:43.270Z,155
2016-08-01T10:55:43.322Z,170
2016-08-01T10:56:58.264Z,170
2016-08-01T10:57:58.296Z,165
2016-08-01T10:58:43.405Z,155
2016-08-01T11:00:13.283Z,145
2016-08-01T11:00:43.506Z,145
2016-08-01T11:01:43.488Z,150
2016-08-01T11:03:43.563Z,155
2016-08-01T11:04:43.578Z,165
2016-08-01T11:05:44.442Z,170
2016-08-01T11:06:43.645Z,180
2016-08-01T11:07:43.691Z,185
2016-08-01T11:08:43.712Z,190
2016-08-01T11:09:43.743Z,195
2016-08-01T11:10:58.694Z,190
2016-08-01T11:11:43.798Z,190
2016-08-01T11:12:58.764Z,195
2016-08-01T11:13:44.584Z,195
2016-08-01T11:14:44.616Z,190
2016-08-01T11:15:44.628Z,195
2016-08-01T11:16:58.895Z,200
2016-08-01T11:17:59.623Z,200
2016-08-01T11:19:44.053Z,190
2016-08-01T11:20:45.751Z,180
2016-08-01T11:21:44.118Z,175
2016-08-01T11:22:44.847Z,165
2016-08-01T11:23:44.173Z,155
2016-08-01T11:24:44.207Z,150
2016-08-01T11:25:59.173Z,140
2016-08-01T11:26:44.962Z,140
2016-08-01T11:27:44.300Z,140
2016-08-01T11:28:44.333Z,145
2016-08-01T11:30:44.399Z,145
2016-08-01T11:31:59.350Z,150
2016-08-01T11:32:59.382Z,150
2016-08-01T11:33:44.502Z,155
2016-08-01T11:34:44.525Z,160
2016-08-01T11:36:59.495Z,175
2016-08-01T11:37:44.615Z,180
2016-08-01T11:38:44.669Z,195
2016-08-01T11:39:44.771Z,200
2016-08-01T11:40:59.633Z,220
2016-08-01T11:41:59.664Z,220
2016-08-01T11:42:44.776Z,210
2016-08-01T11:44:59.752Z,215
2016-08-01T11:45:44.862Z,210
2016-08-01T11:46:44.891Z,210
2016-08-01T11:47:59.833Z,205
2016-08-01T11:48:59.871Z,200
2016-08-01T11:49:45.667Z,200
2016-08-01T11:50:45.006Z,200
2016-08-01T11:51:45.040Z,190
2016-08-01T11:52:45.061Z,185
2016-08-01T11:53:45.091Z,180
2016-08-01T11:54:45.129Z,170
2016-08-01T11:55:45.152Z,155
2016-08-01T11:56:45.176Z,150
2016-08-01T11:57:45.234Z,135
2016-08-01T11:59:00.172Z,120
2016-08-01T12:00:45.375Z,110
2016-08-01T12:01:45.343Z,105
2016-08-01T12:02:45.366Z,95
2016-08-01T12:03:45.411Z,90
2016-08-01T12:05:00.405Z,85
2016-08-01T12:05:46.147Z,85
2016-08-01T12:06:45.490Z,85
2016-08-01T12:07:45.519Z,80
2016-08-01T12:08:45.562Z,80
2016-08-01T12:09:45.580Z,80
2016-08-01T12:10:45.600Z,80
2016-08-01T12:11:46.342Z,80
2016-08-01T12:12:45.679Z,80
2016-08-01T12:13:45.704Z,85
2016-08-01T12:14:45.729Z,90
2016-08-01T12:15:45.763Z,100
2016-08-01T12:17:45.817Z,105
2016-08-01T12:18:45.852Z,105
2016-08-01T12:20:00.808Z,115
2016-08-01T12:20:45.901Z,120
2016-08-01T12:21:45.933Z,125
2016-08-01T12:22:45.969Z,135
2016-08-01T12:23:45.987Z,145
2016-08-01T12:25:00.954Z,160
2016-08-01T12:25:46.048Z,175
2016-08-01T12:26:46.069Z,175
2016-08-01T12:27:46.106Z,185
2016-08-01T12:28:46.143Z,195
2016-08-01T12:30:01.089Z,205
2016-08-01T12:30:46.205Z,220
2016-08-01T12:32:01.153Z,210
2016-08-01T12:33:01.180Z,215
2016-08-01T12:33:46.300Z,215
2016-08-01T12:34:47.013Z,210
2016-08-01T12:35:46.346Z,205
2016-08-01T12:37:01.314Z,195
2016-08-01T12:37:46.405Z,195
2016-08-01T12:38:46.436Z,185
2016-08-01T12:39:46.485Z,175
2016-08-01T12:40:46.496Z,165
2016-08-01T12:41:46.523Z,155
2016-08-01T12:42:46.553Z,150
2016-08-01T12:43:46.588Z,135
2016-08-01T12:44:46.612Z,125
2016-08-01T12:45:46.648Z,125
2016-08-01T12:47:01.598Z,125
2016-08-01T12:48:46.790Z,130
2016-08-01T12:50:01.693Z,135
2016-08-01T12:50:46.796Z,140
2016-08-01T12:52:01.749Z,185
2016-08-01T12:52:46.851Z,150
2016-08-01T12:53:46.884Z,160
2016-08-01T12:54:46.908Z,170
2016-08-01T12:55:46.944Z,175
2016-08-01T12:56:46.958Z,185
2016-08-01T12:57:46.999Z,185
2016-08-01T12:59:01.950Z,195
2016-08-01T12:59:47.064Z,185
2016-08-01T13:00:47.084Z,185
2016-08-01T13:02:02.046Z,190
2016-08-01T13:02:47.149Z,190
2016-08-01T13:04:02.113Z,190
2016-08-01T13:04:47.205Z,190
2016-08-01T13:05:47.241Z,190
2016-08-01T13:07:02.196Z,195
2016-08-01T13:08:02.271Z,195
2016-08-01T13:08:48.022Z,200
2016-08-01T13:09:47.363Z,205
2016-08-01T13:10:47.380Z,210
2016-08-01T13:11:47.422Z,210
2016-08-01T13:12:47.449Z,200
2016-08-01T13:13:47.486Z,200
2016-08-01T13:14:47.504Z,195
2016-08-01T13:15:48.231Z,195
2016-08-01T13:16:47.561Z,200
2016-08-01T13:17:47.593Z,200
2016-08-01T13:18:47.619Z,205
2016-08-01T13:20:47.679Z,205
2016-08-01T13:22:17.567Z,190
2016-08-01T13:22:47.732Z,185
2016-08-01T13:24:02.700Z,175
2016-08-01T13:25:47.833Z,170
2016-08-01T13:26:47.860Z,170
2016-08-01T13:27:48.584Z,180
2016-08-01T13:28:47.914Z,190
2016-08-01T13:29:47.953Z,200
2016-08-01T13:30:47.976Z,205
2016-08-01T13:31:48.054Z,240
2016-08-01T13:32:48.750Z,205
2016-08-01T13:33:48.078Z,200
2016-08-01T13:34:48.099Z,200
2016-08-01T13:36:03.056Z,200
2016-08-01T13:36:48.156Z,195
2016-08-01T13:37:48.190Z,175
2016-08-01T13:38:48.223Z,240
2016-08-01T13:40:18.099Z,230
2016-08-01T13:40:48.283Z,230
2016-08-01T13:41:48.309Z,225
2016-08-01T13:42:48.340Z,210
2016-08-01T13:43:48.370Z,190
2016-08-01T13:44:48.399Z,180
2016-08-01T13:45:49.126Z,130
2016-08-01T13:47:03.382Z,215
2016-08-01T13:47:48.502Z,215
2016-08-01T13:48:48.577Z,210
2016-08-01T13:50:03.479Z,190
2016-08-01T13:51:03.496Z,210
2016-08-01T13:52:03.539Z,205
2016-08-01T13:53:03.561Z,155
2016-08-01T13:53:48.716Z,120
2016-08-01T13:55:04.324Z,110
2016-08-01T13:56:03.658Z,110
2016-08-01T13:56:48.759Z,110
2016-08-01T13:57:48.800Z,150
2016-08-01T13:58:48.818Z,195
2016-08-01T13:59:48.847Z,190
2016-08-01T14:00:49.592Z,200
2016-08-01T14:02:03.846Z,190
2016-08-01T14:04:03.888Z,195
2016-08-01T14:05:03.921Z,195
2016-08-01T14:06:03.945Z,195
2016-08-01T14:06:49.055Z,195
2016-08-01T14:08:49.114Z,190
2016-08-01T14:09:49.160Z,190
2016-08-01T14:10:49.177Z,190
2016-08-01T14:12:04.123Z,190
2016-08-01T14:12:49.223Z,190
2016-08-01T14:13:49.264Z,170
2016-08-01T14:14:49.288Z,180
2016-08-01T14:16:49.352Z,110
2016-08-01T14:17:49.378Z,190
2016-08-01T14:18:49.403Z,180
2016-08-01T14:19:49.433Z,140
2016-08-01T14:20:49.470Z,195
2016-08-01T14:21:49.505Z,185
2016-08-01T14:22:49.544Z,205
2016-08-01T14:23:49.552Z,205
2016-08-01T14:24:49.681Z,205
2016-08-01T14:25:49.608Z,200
2016-08-01T14:27:19.492Z,180
2016-08-01T14:27:49.662Z,130
2016-08-01T14:28:49.713Z,110
2016-08-01T14:29:49.732Z,160
2016-08-01T14:30:49.755Z,110
2016-08-01T14:32:04.721Z,110
2016-08-01T14:32:49.815Z,165
2016-08-01T14:33:50.544Z,170
2016-08-01T14:34:49.884Z,160
2016-08-01T14:35:49.908Z,185
2016-08-01T14:36:49.938Z,200
2016-08-01T14:37:49.969Z,205
2016-08-01T14:38:49.992Z,205
2016-08-01T14:40:04.952Z,200
2016-08-01T14:41:04.988Z,200
2016-08-01T14:41:50.088Z,205
2016-08-01T14:43:05.091Z,200
2016-08-01T14:43:50.148Z,195
2016-08-01T14:44:50.172Z,140
2016-08-01T14:45:50.204Z,200
2016-08-01T14:46:50.238Z,195
2016-08-01T14:47:50.267Z,190
2016-08-01T14:48:50.288Z,180
2016-08-01T14:49:50.324Z,155
2016-08-01T14:50:50.399Z,185
2016-08-01T14:51:50.373Z,185
2016-08-01T14:52:50.411Z,185
2016-08-01T14:53:50.437Z,180
2016-08-01T14:54:50.479Z,185
2016-08-01T14:56:05.419Z,185
2016-08-01T14:56:50.579Z,185
2016-08-01T14:57:50.557Z,145
2016-08-01T14:59:05.510Z,115